Terminal Aerodrome Forecast
Issued by NWS

Home | Current Version | Previous Version | Text Only | Print | Product List | Glossary On
Versions: 1 2 3 4 5 6 7 8 9 10 11 12 13 14
000
FTUS42 KTBW 250500 RRA
TAFLAL
TAF
KLAL 250541Z 2506/2606 00000KT P6SM SKC
     FM251500 21005KT P6SM VCSH SCT035
     FM251800 23007KT P6SM VCTS SCT045CB SCT250
     FM260100 00000KT P6SM FEW030 SCT150 BKN250
      AMD NOT SKED TIL 251200=

USA.gov is the U.S. government's official web portal to all federal, state and local government web resources and services.